createdAt,value
2019-03-08T00:01:23.764Z,2.50
2019-03-08T00:03:55.442Z,2.27
2019-03-08T00:06:27.304Z,2.30
2019-03-08T00:08:58.886Z,3.20
2019-03-08T00:11:30.582Z,2.92
2019-03-08T00:14:02.189Z,2.80
2019-03-08T00:16:33.864Z,3.10
2019-03-08T00:19:05.664Z,3.00
2019-03-08T00:21:37.166Z,2.60
2019-03-08T00:24:09.027Z,2.73
2019-03-08T00:26:40.693Z,3.03
2019-03-08T00:29:12.355Z,3.33
2019-03-08T00:31:43.954Z,3.00
2019-03-08T00:34:15.608Z,3.40
2019-03-08T00:36:47.236Z,3.73
2019-03-08T00:39:18.957Z,2.90
2019-03-08T00:41:50.574Z,3.10
2019-03-08T00:44:22.236Z,2.80
2019-03-08T00:46:53.858Z,2.40
2019-03-08T00:49:25.386Z,2.30
2019-03-08T00:51:56.895Z,2.20
2019-03-08T00:54:28.583Z,2.27
2019-03-08T00:57:00.102Z,2.50
2019-03-08T00:59:31.742Z,1.90
2019-03-08T01:02:03.313Z,2.20
2019-03-08T01:04:34.933Z,2.10
2019-03-08T01:07:06.768Z,2.17
2019-03-08T01:09:38.369Z,1.80
2019-03-08T01:12:10.028Z,1.90
2019-03-08T01:14:41.568Z,1.93
2019-03-08T01:17:13.139Z,1.63
2019-03-08T01:19:44.701Z,1.93
2019-03-08T01:22:16.316Z,1.80
2019-03-08T01:24:47.844Z,1.43
2019-03-08T01:27:19.478Z,1.37
2019-03-08T01:29:51.105Z,1.77
2019-03-08T01:32:22.777Z,1.40
2019-03-08T01:34:54.472Z,1.57
2019-03-08T01:37:26.210Z,1.60
2019-03-08T01:39:57.841Z,1.27
2019-03-08T01:42:29.620Z,1.70
2019-03-08T01:45:01.315Z,1.50
2019-03-08T01:47:33.904Z,1.53
2019-03-08T01:50:07.888Z,1.63
2019-03-08T01:52:39.412Z,1.67
2019-03-08T01:55:10.924Z,1.90
2019-03-08T01:57:42.584Z,1.87
2019-03-08T02:00:18.014Z,2.30
2019-03-08T02:02:49.518Z,2.10
2019-03-08T02:05:21.924Z,1.93
2019-03-08T02:07:53.540Z,2.20
2019-03-08T02:10:25.208Z,1.80
2019-03-08T02:12:56.777Z,2.00
2019-03-08T02:15:28.283Z,2.10
2019-03-08T02:17:59.858Z,1.80
2019-03-08T02:20:31.378Z,1.43
2019-03-08T02:23:03.132Z,1.90
2019-03-08T02:25:34.933Z,1.90
2019-03-08T02:28:08.488Z,1.50
2019-03-08T02:30:39.751Z,1.87
2019-03-08T02:33:11.389Z,1.50
2019-03-08T02:35:43.000Z,1.67
2019-03-08T02:38:14.626Z,1.40
2019-03-08T02:40:46.507Z,2.00
2019-03-08T02:43:19.045Z,1.50
2019-03-08T02:45:50.644Z,1.80
2019-03-08T02:48:22.163Z,2.27
2019-03-08T02:50:54.007Z,1.70
2019-03-08T02:53:25.660Z,1.40
2019-03-08T02:55:57.389Z,1.73
2019-03-08T02:58:28.904Z,2.10
2019-03-08T03:01:00.471Z,1.90
2019-03-08T03:03:32.083Z,1.50
2019-03-08T03:06:03.831Z,1.67
2019-03-08T03:08:35.356Z,1.80
2019-03-08T03:11:06.847Z,1.27
2019-03-08T03:13:38.528Z,1.63
2019-03-08T03:16:10.323Z,1.50
2019-03-08T03:18:41.849Z,1.93
2019-03-08T03:21:13.439Z,1.80
2019-03-08T03:23:44.965Z,1.43
2019-03-08T03:26:16.551Z,1.60
2019-03-08T03:28:48.111Z,1.50
2019-03-08T03:31:19.673Z,1.40
2019-03-08T03:33:51.703Z,1.67
2019-03-08T03:36:23.455Z,1.50
2019-03-08T03:38:55.190Z,1.40
2019-03-08T03:41:26.784Z,1.73
2019-03-08T03:43:58.358Z,1.60
2019-03-08T03:46:29.865Z,1.27
2019-03-08T03:49:01.954Z,1.53
2019-03-08T03:51:33.866Z,1.60
2019-03-08T03:54:05.388Z,1.50
2019-03-08T03:56:37.011Z,1.57
2019-03-08T03:59:08.677Z,1.20
2019-03-08T04:01:41.841Z,1.87
2019-03-08T04:04:14.004Z,1.73
2019-03-08T04:06:45.562Z,1.70
2019-03-08T04:09:17.100Z,2.13
2019-03-08T04:11:48.612Z,1.47
2019-03-08T04:14:20.202Z,1.70
2019-03-08T04:16:51.757Z,2.00
2019-03-08T04:19:23.337Z,1.70
2019-03-08T04:21:54.958Z,2.20
2019-03-08T04:24:27.716Z,2.00
2019-03-08T04:26:59.595Z,1.60
2019-03-08T04:29:31.122Z,2.40
2019-03-08T04:32:02.659Z,1.70
2019-03-08T04:34:34.261Z,1.70
2019-03-08T04:37:05.859Z,1.60
2019-03-08T04:39:37.442Z,1.50
2019-03-08T04:42:09.072Z,1.40
2019-03-08T04:44:40.685Z,1.47
2019-03-08T04:47:12.182Z,1.60
2019-03-08T04:49:43.860Z,2.10
2019-03-08T04:52:15.514Z,1.67
2019-03-08T04:54:47.099Z,1.67
2019-03-08T04:57:18.614Z,1.33
2019-03-08T04:59:50.209Z,1.40
2019-03-08T05:02:22.845Z,1.67
2019-03-08T05:04:54.606Z,1.93
2019-03-08T05:07:26.207Z,1.80
2019-03-08T05:09:57.797Z,1.97
2019-03-08T05:12:31.004Z,1.60
2019-03-08T05:15:02.547Z,2.23
2019-03-08T05:17:34.068Z,1.50
2019-03-08T05:20:08.900Z,1.83
2019-03-08T05:22:40.474Z,1.73
2019-03-08T05:25:14.934Z,1.90
2019-03-08T05:27:46.626Z,1.70
2019-03-08T05:30:18.938Z,1.80
2019-03-08T05:32:50.448Z,1.77
2019-03-08T05:35:22.093Z,1.70
2019-03-08T05:37:53.918Z,1.80
2019-03-08T05:40:25.487Z,2.00
2019-03-08T05:42:58.063Z,1.77
2019-03-08T05:45:29.643Z,2.07
2019-03-08T05:48:01.172Z,2.10
2019-03-08T05:50:32.654Z,2.80
2019-03-08T05:53:04.165Z,2.30
2019-03-08T05:55:35.657Z,2.60
2019-03-08T05:58:07.183Z,2.03
2019-03-08T06:00:38.709Z,2.67
2019-03-08T06:03:10.279Z,2.20
2019-03-08T06:05:41.806Z,2.20
2019-03-08T06:08:13.441Z,2.03
2019-03-08T06:10:45.005Z,2.00
2019-03-08T06:13:18.939Z,2.20
2019-03-08T06:15:53.983Z,2.13
2019-03-08T06:18:25.983Z,2.20
2019-03-08T06:20:57.500Z,2.10
2019-03-08T06:23:29.081Z,1.80
2019-03-08T06:26:01.061Z,2.20
2019-03-08T06:28:32.803Z,1.40
2019-03-08T06:31:04.303Z,2.60
2019-03-08T06:33:35.807Z,1.60
2019-03-08T06:36:07.327Z,1.70
2019-03-08T06:38:39.088Z,2.10
2019-03-08T06:41:10.680Z,2.70
2019-03-08T06:43:42.306Z,2.03
2019-03-08T06:46:13.843Z,1.67
2019-03-08T06:48:45.370Z,1.80
2019-03-08T06:51:17.022Z,2.30
2019-03-08T06:53:48.614Z,1.40
2019-03-08T06:56:20.215Z,1.03
2019-03-08T06:58:56.354Z,1.90
2019-03-08T07:01:28.220Z,1.70
2019-03-08T07:03:59.854Z,1.82
2019-03-08T07:06:31.443Z,1.87
2019-03-08T07:09:03.010Z,1.60
2019-03-08T07:11:36.131Z,1.70
2019-03-08T07:14:07.791Z,2.10
2019-03-08T07:16:39.294Z,2.13
2019-03-08T07:19:10.872Z,2.17
2019-03-08T07:21:44.073Z,1.80
2019-03-08T07:24:23.596Z,1.75
2019-03-08T07:26:56.755Z,1.90
2019-03-08T07:29:29.901Z,1.27
2019-03-08T07:32:03.121Z,1.40
2019-03-08T07:34:42.269Z,2.12
2019-03-08T07:37:33.594Z,1.55
2019-03-08T07:40:09.154Z,2.67
2019-03-08T07:42:48.697Z,1.50
2019-03-08T07:45:25.117Z,1.70
2019-03-08T07:48:10.301Z,1.70
2019-03-08T07:50:55.866Z,2.25
2019-03-08T07:53:29.138Z,1.83
2019-03-08T07:56:06.246Z,1.47
2019-03-08T07:58:45.414Z,1.65
2019-03-08T08:01:16.767Z,1.42
2019-03-08T08:03:58.676Z,1.55
2019-03-08T08:06:30.009Z,2.77
2019-03-08T08:09:03.456Z,2.02
2019-03-08T08:11:56.535Z,1.35
2019-03-08T08:14:39.065Z,1.60
2019-03-08T08:17:05.777Z,1.62
2019-03-08T08:19:38.961Z,1.70
2019-03-08T08:22:15.229Z,1.75
2019-03-08T08:24:51.171Z,2.35
2019-03-08T08:27:27.335Z,2.25
2019-03-08T08:30:06.223Z,2.10
2019-03-08T08:32:37.506Z,3.60
2019-03-08T08:35:13.193Z,1.90
2019-03-08T08:37:52.480Z,2.00
2019-03-08T08:40:33.108Z,2.20
2019-03-08T08:43:21.401Z,1.80
2019-03-08T08:46:10.935Z,2.98
2019-03-08T08:48:42.317Z,2.10
2019-03-08T08:51:15.492Z,2.02
2019-03-08T08:53:52.700Z,3.45
2019-03-08T08:56:37.936Z,1.20
2019-03-08T08:59:11.098Z,2.10
2019-03-08T09:02:00.443Z,2.17
2019-03-08T09:04:33.805Z,1.57
2019-03-08T09:07:19.433Z,1.12
2019-03-08T09:09:55.560Z,1.70
2019-03-08T09:12:42.020Z,1.90
2019-03-08T09:15:17.835Z,1.65
2019-03-08T09:17:52.609Z,1.30
2019-03-08T09:20:29.014Z,1.30
2019-03-08T09:23:04.048Z,1.90
2019-03-08T09:25:38.558Z,1.35
2019-03-08T09:28:14.853Z,1.57
2019-03-08T09:31:03.414Z,1.87
2019-03-08T09:33:53.329Z,1.35
2019-03-08T09:36:29.536Z,1.60
2019-03-08T09:39:02.771Z,1.65
2019-03-08T09:41:36.778Z,1.90
2019-03-08T09:44:26.200Z,2.25
2019-03-08T09:46:57.590Z,3.05
2019-03-08T09:49:33.755Z,1.40
2019-03-08T09:52:15.926Z,1.05
2019-03-08T09:54:49.143Z,1.00
2019-03-08T09:57:38.502Z,1.70
2019-03-08T10:00:34.959Z,6.65
2019-03-08T10:03:13.927Z,4.70
2019-03-08T10:06:03.870Z,1.37
2019-03-08T10:08:44.114Z,1.30
2019-03-08T10:11:17.468Z,1.40
2019-03-08T10:13:57.528Z,1.60
2019-03-08T10:16:46.047Z,1.30
2019-03-08T10:19:35.601Z,1.57
2019-03-08T10:22:14.798Z,1.33
2019-03-08T10:24:47.937Z,2.08
2019-03-08T10:27:21.303Z,1.33
2019-03-08T10:29:57.520Z,1.30
2019-03-08T10:32:37.261Z,1.50
2019-03-08T10:35:14.417Z,1.62
2019-03-08T10:38:01.599Z,2.17
2019-03-08T10:40:43.813Z,1.70
2019-03-08T10:43:29.052Z,1.75
2019-03-08T10:46:18.277Z,1.62
2019-03-08T10:49:07.993Z,1.67
2019-03-08T10:51:47.291Z,1.35
2019-03-08T10:54:23.526Z,1.33
2019-03-08T10:56:55.501Z,1.42
2019-03-08T10:59:44.566Z,1.40
2019-03-08T11:02:23.863Z,2.30
2019-03-08T11:04:59.794Z,1.25
2019-03-08T11:07:35.775Z,1.17
2019-03-08T11:10:32.714Z,1.40
2019-03-08T11:13:14.311Z,1.32
2019-03-08T11:15:48.465Z,1.10
2019-03-08T11:18:33.597Z,1.50
2019-03-08T11:21:19.104Z,1.72
2019-03-08T11:24:04.370Z,1.52
2019-03-08T11:26:40.533Z,1.40
2019-03-08T11:29:16.231Z,1.10
2019-03-08T11:31:56.837Z,1.50
2019-03-08T11:34:36.214Z,1.60
2019-03-08T11:37:09.403Z,1.42
2019-03-08T11:39:51.988Z,1.62
2019-03-08T11:42:31.021Z,1.40
2019-03-08T11:45:16.242Z,1.50
2019-03-08T11:48:05.814Z,1.40
2019-03-08T11:50:39.113Z,1.50
2019-03-08T11:56:35.783Z,1.60
2019-03-08T11:59:07.199Z,1.12
2019-03-08T12:01:59.090Z,1.42
2019-03-08T12:04:32.214Z,1.55
2019-03-08T12:07:17.807Z,1.65
2019-03-08T12:09:51.011Z,1.35
2019-03-08T12:12:23.278Z,1.22
2019-03-08T12:14:59.513Z,1.80
2019-03-08T12:17:36.766Z,1.50
2019-03-08T12:20:16.799Z,1.60
2019-03-08T12:22:50.784Z,1.98
2019-03-08T12:25:38.286Z,1.67
2019-03-08T12:28:12.500Z,3.70
2019-03-08T12:31:04.032Z,1.52
2019-03-08T12:33:37.214Z,1.27
2019-03-08T12:36:08.701Z,1.85
2019-03-08T12:38:42.110Z,1.05
2019-03-08T12:41:18.258Z,1.47
2019-03-08T12:43:51.409Z,1.12
2019-03-08T12:46:31.505Z,1.67
2019-03-08T12:49:19.810Z,1.67
2019-03-08T12:52:02.225Z,1.20
2019-03-08T12:54:35.585Z,0.75
2019-03-08T12:57:17.743Z,1.02
2019-03-08T13:00:01.641Z,0.90
2019-03-08T13:02:38.886Z,1.20
2019-03-08T13:05:17.891Z,0.80
2019-03-08T13:07:51.370Z,1.10
2019-03-08T13:10:23.083Z,1.62
2019-03-08T13:12:54.697Z,1.00
2019-03-08T13:15:26.209Z,1.20
2019-03-08T13:17:57.797Z,1.00
2019-03-08T13:20:29.296Z,1.27
2019-03-08T13:23:00.920Z,1.27
2019-03-08T13:25:32.709Z,1.27
2019-03-08T13:28:04.241Z,1.27
2019-03-08T13:30:36.051Z,1.07
2019-03-08T13:33:07.740Z,1.27
2019-03-08T13:35:39.567Z,1.30
2019-03-08T13:38:11.278Z,1.60
2019-03-08T13:40:43.872Z,1.82
2019-03-08T13:43:16.454Z,1.00
2019-03-08T13:45:48.034Z,1.10
2019-03-08T13:48:19.636Z,0.90
2019-03-08T13:50:51.235Z,1.10
2019-03-08T13:53:22.897Z,1.40
2019-03-08T13:55:54.776Z,1.12
2019-03-08T13:58:26.406Z,1.20
2019-03-08T14:00:58.025Z,1.47
2019-03-08T14:03:29.530Z,1.10
2019-03-08T14:06:01.140Z,0.90
2019-03-08T14:08:32.718Z,0.80
2019-03-08T14:11:04.659Z,1.00
2019-03-08T14:13:36.234Z,0.90
2019-03-08T14:16:07.763Z,0.80
2019-03-08T14:18:39.260Z,0.80
2019-03-08T14:21:10.861Z,0.90
2019-03-08T14:23:42.677Z,1.03
2019-03-08T14:26:14.256Z,1.22
2019-03-08T14:28:45.990Z,1.50
2019-03-08T14:31:19.247Z,1.10
2019-03-08T14:33:50.865Z,1.77
2019-03-08T14:36:22.434Z,1.60
2019-03-08T14:38:54.241Z,1.73
2019-03-08T14:41:30.646Z,1.50
2019-03-08T14:44:02.414Z,1.40
2019-03-08T14:46:35.762Z,1.60
2019-03-08T14:49:07.876Z,1.80
2019-03-08T14:51:39.445Z,2.17
2019-03-08T14:54:11.202Z,2.93
2019-03-08T14:56:43.051Z,2.00
2019-03-08T14:59:15.466Z,1.60
2019-03-08T15:01:47.839Z,1.47
2019-03-08T15:04:20.753Z,1.03
2019-03-08T15:06:52.624Z,1.23
2019-03-08T15:09:24.159Z,1.60
2019-03-08T15:11:55.976Z,1.80
2019-03-08T15:14:30.165Z,1.83
2019-03-08T15:17:08.913Z,1.60
2019-03-08T15:19:36.134Z,1.23
2019-03-08T15:22:09.230Z,1.80
2019-03-08T15:24:40.756Z,1.40
2019-03-08T15:27:13.320Z,1.57
2019-03-08T15:29:54.072Z,1.77
2019-03-08T15:32:18.121Z,2.10
2019-03-08T15:34:49.769Z,1.70
2019-03-08T15:37:21.259Z,1.60
2019-03-08T15:39:53.492Z,2.10
2019-03-08T15:42:25.028Z,1.73
2019-03-08T15:44:56.691Z,1.50
2019-03-08T15:47:28.314Z,1.80
2019-03-08T15:50:00.523Z,1.60
2019-03-08T15:52:32.166Z,1.83
2019-03-08T15:55:04.230Z,2.10
2019-03-08T15:57:36.021Z,1.77
2019-03-08T16:00:24.327Z,2.33
2019-03-08T16:02:55.974Z,1.77
2019-03-08T16:05:28.397Z,1.70
2019-03-08T16:08:01.667Z,2.23
2019-03-08T16:10:34.363Z,1.67
2019-03-08T16:13:06.203Z,2.13
2019-03-08T16:15:37.869Z,2.50
2019-03-08T16:18:09.760Z,2.37
2019-03-08T16:20:41.678Z,2.17
2019-03-08T16:23:13.264Z,2.20
2019-03-08T16:25:47.474Z,2.17
2019-03-08T16:28:18.208Z,2.23
2019-03-08T16:30:54.456Z,1.97
2019-03-08T16:33:41.047Z,2.17
2019-03-08T16:36:14.559Z,2.00
2019-03-08T16:38:58.191Z,2.10
2019-03-08T16:41:34.505Z,2.40
2019-03-08T16:44:18.462Z,2.13
2019-03-08T16:47:08.851Z,2.00
2019-03-08T16:49:51.460Z,1.87
2019-03-08T16:52:26.450Z,1.50
2019-03-08T16:55:15.993Z,2.10
2019-03-08T16:57:56.900Z,2.13
2019-03-08T17:00:30.263Z,1.93
2019-03-08T17:03:19.110Z,1.73
2019-03-08T17:05:55.968Z,2.10
2019-03-08T17:08:29.363Z,2.17
2019-03-08T17:11:14.672Z,2.23
2019-03-08T17:13:48.094Z,2.10
2019-03-08T17:16:21.462Z,2.13
2019-03-08T17:18:53.431Z,2.23
2019-03-08T17:21:38.767Z,2.10
2019-03-08T17:24:21.698Z,2.20
2019-03-08T17:26:59.634Z,2.13
2019-03-08T17:29:35.871Z,2.10
2019-03-08T17:32:09.113Z,2.47
2019-03-08T17:34:51.343Z,2.20
2019-03-08T17:37:24.539Z,2.40
2019-03-08T17:40:10.264Z,3.23
2019-03-08T17:42:52.589Z,3.53
2019-03-08T17:45:42.237Z,3.33
2019-03-08T17:48:22.725Z,3.20
2019-03-08T17:50:57.486Z,2.80
2019-03-08T17:53:34.746Z,3.07
2019-03-08T17:56:10.727Z,2.87
2019-03-08T17:58:56.293Z,3.10
2019-03-08T18:01:40.275Z,3.90
2019-03-08T18:04:14.509Z,2.73
2019-03-08T18:06:47.934Z,3.60
2019-03-08T18:09:23.384Z,3.70
2019-03-08T18:11:59.670Z,3.00
2019-03-08T18:14:45.315Z,3.27
2019-03-08T18:17:18.702Z,2.93
2019-03-08T18:19:50.269Z,2.80
2019-03-08T18:22:39.876Z,2.50
2019-03-08T18:25:19.252Z,2.30
2019-03-08T18:27:55.340Z,2.67
2019-03-08T18:30:28.673Z,2.77
2019-03-08T18:33:17.197Z,2.93
2019-03-08T18:35:48.631Z,2.57
2019-03-08T18:38:38.075Z,2.80
2019-03-08T18:41:17.036Z,2.73
2019-03-08T18:44:06.490Z,2.80
2019-03-08T18:46:49.547Z,3.00
2019-03-08T18:49:54.968Z,3.20
2019-03-08T18:52:28.862Z,3.30
2019-03-08T18:55:03.546Z,3.37
2019-03-08T18:57:39.895Z,3.47
2019-03-08T19:00:14.416Z,3.00
2019-03-08T19:03:03.759Z,3.40
2019-03-08T19:05:37.309Z,3.53
2019-03-08T19:08:16.360Z,4.30
2019-03-08T19:10:52.397Z,3.30
2019-03-08T19:13:37.426Z,3.60
2019-03-08T19:16:10.983Z,3.50
2019-03-08T19:18:44.346Z,3.70
2019-03-08T19:21:17.686Z,3.50
2019-03-08T19:24:08.968Z,3.30
2019-03-08T19:26:47.816Z,2.70
2019-03-08T19:29:31.067Z,3.33
2019-03-08T19:32:08.784Z,3.30
2019-03-08T19:34:48.358Z,3.40
2019-03-08T19:37:21.520Z,3.00
2019-03-08T19:39:58.034Z,2.83
2019-03-08T19:42:38.259Z,2.33
2019-03-08T19:45:28.905Z,3.07
2019-03-08T19:48:02.249Z,3.03
2019-03-08T19:50:52.130Z,2.60
2019-03-08T19:53:41.728Z,2.60
2019-03-08T19:56:14.953Z,2.90
2019-03-08T19:59:00.327Z,2.63
2019-03-08T20:01:39.460Z,3.27
2019-03-08T20:04:15.452Z,3.30
2019-03-08T20:06:56.439Z,2.90
2019-03-08T20:09:48.021Z,3.33
2019-03-08T20:12:21.214Z,3.17
2019-03-08T20:15:10.597Z,3.00
2019-03-08T20:17:46.683Z,3.43
2019-03-08T20:20:28.797Z,3.13
2019-03-08T20:23:11.164Z,2.67
2019-03-08T20:26:00.866Z,3.13
2019-03-08T20:28:50.368Z,3.30
2019-03-08T20:31:23.617Z,4.20
2019-03-08T20:34:05.755Z,3.40
2019-03-08T20:36:38.990Z,3.20
2019-03-08T20:39:12.303Z,3.77
2019-03-08T20:41:58.207Z,3.03
2019-03-08T20:44:31.507Z,3.17
2019-03-08T20:47:07.896Z,4.13
2019-03-08T20:49:39.501Z,3.30
2019-03-08T20:52:11.123Z,2.63
2019-03-08T20:54:42.811Z,3.50
2019-03-08T20:57:14.417Z,3.73
2019-03-08T20:59:46.027Z,3.47
2019-03-08T21:02:17.769Z,3.27
2019-03-08T21:04:49.736Z,3.73
2019-03-08T21:07:21.426Z,4.00
2019-03-08T21:09:53.021Z,4.00
2019-03-08T21:12:24.617Z,3.07
2019-03-08T21:14:56.266Z,3.40
2019-03-08T21:17:27.799Z,3.60
2019-03-08T21:20:00.307Z,3.00
2019-03-08T21:22:32.333Z,4.60
2019-03-08T21:25:08.165Z,4.97
2019-03-08T21:27:40.990Z,4.70
2019-03-08T21:30:20.988Z,4.33
2019-03-08T21:32:52.804Z,5.63
2019-03-08T21:35:24.519Z,4.87
2019-03-08T21:37:56.203Z,5.47
2019-03-08T21:40:27.883Z,5.40
2019-03-08T21:42:59.731Z,4.90
2019-03-08T21:45:31.389Z,4.80
2019-03-08T21:48:03.356Z,5.73
2019-03-08T21:50:35.229Z,6.63
2019-03-08T21:53:06.905Z,5.93
2019-03-08T21:55:38.546Z,6.00
2019-03-08T21:58:10.776Z,5.23
2019-03-08T22:00:42.367Z,6.17
2019-03-08T22:03:14.171Z,5.97
2019-03-08T22:05:45.760Z,6.27
2019-03-08T22:08:18.064Z,7.37
2019-03-08T22:10:51.410Z,7.77
2019-03-08T22:13:23.274Z,8.23
2019-03-08T22:15:54.941Z,6.53
2019-03-08T22:18:26.583Z,9.03
2019-03-08T22:20:58.171Z,10.13
2019-03-08T22:23:29.892Z,8.87
2019-03-08T22:26:01.733Z,8.10
2019-03-08T22:28:34.688Z,8.33
2019-03-08T22:31:07.305Z,7.33
2019-03-08T22:33:39.269Z,7.13
2019-03-08T22:36:10.835Z,7.00
2019-03-08T22:38:42.361Z,8.47
2019-03-08T22:41:13.961Z,8.57
2019-03-08T22:43:45.758Z,8.10
2019-03-08T22:46:17.577Z,6.93
2019-03-08T22:48:49.303Z,7.97
2019-03-08T22:51:21.243Z,9.27
2019-03-08T22:53:52.763Z,7.57
2019-03-08T22:56:24.432Z,6.40
2019-03-08T22:58:55.992Z,7.57
2019-03-08T23:01:29.258Z,7.67
2019-03-08T23:04:01.439Z,5.67
2019-03-08T23:06:33.017Z,6.93
2019-03-08T23:09:05.379Z,6.43
2019-03-08T23:11:37.586Z,5.63
2019-03-08T23:14:09.095Z,6.97
2019-03-08T23:16:42.204Z,7.27
2019-03-08T23:19:13.711Z,6.77
2019-03-08T23:21:45.406Z,6.43
2019-03-08T23:24:16.928Z,6.37
2019-03-08T23:26:50.142Z,6.90
2019-03-08T23:29:23.366Z,5.83
2019-03-08T23:31:56.606Z,6.27
2019-03-08T23:34:28.114Z,6.77
2019-03-08T23:36:59.892Z,5.60
2019-03-08T23:39:31.416Z,6.00
2019-03-08T23:42:03.240Z,6.43
2019-03-08T23:44:35.038Z,6.33
2019-03-08T23:47:06.923Z,5.47
2019-03-08T23:49:38.607Z,6.23
2019-03-08T23:52:10.234Z,5.53
2019-03-08T23:54:41.853Z,8.23
2019-03-08T23:57:13.797Z,7.00
2019-03-08T23:59:45.375Z,5.33
